Terminal Aerodrome Forecast
Issued by NWS

Home | Current Version | Previous Version | Text Only | Print | Product List | Glossary On
Versions: 1 2 3 4 5 6 7 8 9 10 11 12 13 14
000
FTUS42 KTBW 282339
TAFPGD
TAF
KPGD 282339Z 2900/2924 09011KT P6SM FEW070
     FM290500 08008KT P6SM FEW250
     FM291900 07011KT P6SM VCTS FEW025CB SCT050 BKN250=

USA.gov is the U.S. government's official web portal to all federal, state and local government web resources and services.